Terminal Aerodrome Forecast
Issued by NWS

Home | Current Version | Previous Version | Text Only | Print | Product List | Glossary On
Versions: 1 2 3 4 5 6 7 8 9 10 11 12 13 14 15 16 17 18 19 20 21 22 23 24
000
FTUS43 KJKL 210533
TAFSME
TAF
KSME 210533Z 2106/2206 VRB03KT P6SM VCSH FEW035 SCT050 BKN080
     FM210800 25004KT 6SM -SHRA VCTS SCT035CB BKN040 OVC060
     FM211300 25005KT 5SM BR VCTS OVC010CB
     FM211600 29005KT P6SM VCTS OVC025CB
     FM220200 36007KT 6SM SHRA OVC015=

USA.gov is the U.S. government's official web portal to all federal, state and local government web resources and services.